sensor_id;sensor_type;location;lat;lon;timestamp;P1;durP1;ratioP1;P2;durP2;ratioP2
51270;SDS011;37744;50.960;4.136;2023-06-14T00:00:32;10.48;;;5.88;;
51270;SDS011;37744;50.960;4.136;2023-06-14T00:02:59;8.20;;;5.70;;
51270;SDS011;37744;50.960;4.136;2023-06-14T00:05:26;8.93;;;6.47;;
51270;SDS011;37744;50.960;4.136;2023-06-14T00:07:51;10.10;;;6.38;;
51270;SDS011;37744;50.960;4.136;2023-06-14T00:10:18;12.20;;;6.13;;
51270;SDS011;37744;50.960;4.136;2023-06-14T00:12:44;8.23;;;6.45;;
51270;SDS011;37744;50.960;4.136;2023-06-14T00:15:09;9.43;;;6.40;;
51270;SDS011;37744;50.960;4.136;2023-06-14T00:17:35;9.38;;;6.68;;
51270;SDS011;37744;50.960;4.136;2023-06-14T00:20:01;10.38;;;6.97;;
51270;SDS011;37744;50.960;4.136;2023-06-14T00:22:28;7.20;;;5.78;;
51270;SDS011;37744;50.960;4.136;2023-06-14T00:24:53;7.55;;;6.15;;
51270;SDS011;37744;50.960;4.136;2023-06-14T00:27:19;11.18;;;6.95;;
51270;SDS011;37744;50.960;4.136;2023-06-14T00:29:44;8.20;;;6.75;;
51270;SDS011;37744;50.960;4.136;2023-06-14T00:32:11;11.32;;;6.60;;
51270;SDS011;37744;50.960;4.136;2023-06-14T00:34:37;9.80;;;7.22;;
51270;SDS011;37744;50.960;4.136;2023-06-14T00:37:02;8.57;;;6.53;;
51270;SDS011;37744;50.960;4.136;2023-06-14T00:39:29;10.93;;;6.60;;
51270;SDS011;37744;50.960;4.136;2023-06-14T00:41:54;9.63;;;6.18;;
51270;SDS011;37744;50.960;4.136;2023-06-14T00:44:19;11.50;;;7.45;;
51270;SDS011;37744;50.960;4.136;2023-06-14T00:46:47;11.68;;;6.60;;
51270;SDS011;37744;50.960;4.136;2023-06-14T00:49:14;8.52;;;6.95;;
51270;SDS011;37744;50.960;4.136;2023-06-14T00:51:40;11.70;;;7.57;;
51270;SDS011;37744;50.960;4.136;2023-06-14T00:54:06;11.10;;;6.70;;
51270;SDS011;37744;50.960;4.136;2023-06-14T00:56:31;14.43;;;7.72;;
51270;SDS011;37744;50.960;4.136;2023-06-14T00:58:56;12.40;;;8.20;;
51270;SDS011;37744;50.960;4.136;2023-06-14T01:01:22;13.05;;;7.03;;
51270;SDS011;37744;50.960;4.136;2023-06-14T01:03:48;13.55;;;7.65;;
51270;SDS011;37744;50.960;4.136;2023-06-14T01:06:27;19.92;;;8.20;;
51270;SDS011;37744;50.960;4.136;2023-06-14T01:11:59;10.65;;;7.03;;
51270;SDS011;37744;50.960;4.136;2023-06-14T01:14:25;10.82;;;7.43;;
51270;SDS011;37744;50.960;4.136;2023-06-14T01:16:52;11.63;;;7.05;;
51270;SDS011;37744;50.960;4.136;2023-06-14T01:19:18;10.27;;;6.50;;
51270;SDS011;37744;50.960;4.136;2023-06-14T01:21:44;10.85;;;7.22;;
51270;SDS011;37744;50.960;4.136;2023-06-14T01:24:10;13.52;;;7.35;;
51270;SDS011;37744;50.960;4.136;2023-06-14T01:26:36;11.10;;;7.28;;
51270;SDS011;37744;50.960;4.136;2023-06-14T01:29:04;10.82;;;7.25;;
51270;SDS011;37744;50.960;4.136;2023-06-14T01:31:29;13.63;;;7.97;;
51270;SDS011;37744;50.960;4.136;2023-06-14T01:34:04;9.85;;;7.15;;
51270;SDS011;37744;50.960;4.136;2023-06-14T01:36:30;8.48;;;6.68;;
51270;SDS011;37744;50.960;4.136;2023-06-14T01:38:55;8.77;;;6.95;;
51270;SDS011;37744;50.960;4.136;2023-06-14T01:41:21;9.82;;;7.40;;
51270;SDS011;37744;50.960;4.136;2023-06-14T01:43:47;12.82;;;7.63;;
51270;SDS011;37744;50.960;4.136;2023-06-14T01:46:14;13.50;;;7.45;;
51270;SDS011;37744;50.960;4.136;2023-06-14T01:48:40;11.38;;;7.50;;
51270;SDS011;37744;50.960;4.136;2023-06-14T01:51:05;12.48;;;7.68;;
51270;SDS011;37744;50.960;4.136;2023-06-14T01:53:31;10.55;;;6.90;;
51270;SDS011;37744;50.960;4.136;2023-06-14T01:55:56;10.90;;;7.38;;
51270;SDS011;37744;50.960;4.136;2023-06-14T01:58:21;10.10;;;7.32;;
51270;SDS011;37744;50.960;4.136;2023-06-14T02:00:48;11.48;;;7.00;;
51270;SDS011;37744;50.960;4.136;2023-06-14T02:03:14;11.38;;;7.15;;
51270;SDS011;37744;50.960;4.136;2023-06-14T02:05:41;10.77;;;7.57;;
51270;SDS011;37744;50.960;4.136;2023-06-14T02:08:06;9.95;;;7.32;;
51270;SDS011;37744;50.960;4.136;2023-06-14T02:10:33;12.73;;;7.15;;
51270;SDS011;37744;50.960;4.136;2023-06-14T02:13:00;9.57;;;7.10;;
51270;SDS011;37744;50.960;4.136;2023-06-14T02:15:25;10.57;;;7.60;;
51270;SDS011;37744;50.960;4.136;2023-06-14T02:17:58;11.10;;;7.47;;
51270;SDS011;37744;50.960;4.136;2023-06-14T02:20:23;8.55;;;7.28;;
51270;SDS011;37744;50.960;4.136;2023-06-14T02:22:49;13.60;;;7.38;;
51270;SDS011;37744;50.960;4.136;2023-06-14T02:25:15;9.93;;;6.88;;
51270;SDS011;37744;50.960;4.136;2023-06-14T02:27:40;10.50;;;6.97;;
51270;SDS011;37744;50.960;4.136;2023-06-14T02:30:06;10.73;;;7.03;;
51270;SDS011;37744;50.960;4.136;2023-06-14T02:32:32;10.32;;;7.43;;
51270;SDS011;37744;50.960;4.136;2023-06-14T02:34:59;14.55;;;7.50;;
51270;SDS011;37744;50.960;4.136;2023-06-14T02:37:25;10.65;;;6.90;;
51270;SDS011;37744;50.960;4.136;2023-06-14T02:39:50;11.43;;;7.00;;
51270;SDS011;37744;50.960;4.136;2023-06-14T02:42:17;10.48;;;7.60;;
51270;SDS011;37744;50.960;4.136;2023-06-14T02:44:43;9.02;;;6.80;;
51270;SDS011;37744;50.960;4.136;2023-06-14T02:47:10;14.30;;;7.15;;
51270;SDS011;37744;50.960;4.136;2023-06-14T02:49:35;11.25;;;7.70;;
51270;SDS011;37744;50.960;4.136;2023-06-14T02:52:00;10.30;;;7.07;;
51270;SDS011;37744;50.960;4.136;2023-06-14T02:54:26;9.43;;;7.25;;
51270;SDS011;37744;50.960;4.136;2023-06-14T02:56:51;12.15;;;7.68;;
51270;SDS011;37744;50.960;4.136;2023-06-14T02:59:16;10.05;;;7.63;;
51270;SDS011;37744;50.960;4.136;2023-06-14T03:01:43;11.20;;;7.38;;
51270;SDS011;37744;50.960;4.136;2023-06-14T03:04:08;10.02;;;7.05;;
51270;SDS011;37744;50.960;4.136;2023-06-14T03:06:35;16.42;;;7.78;;
51270;SDS011;37744;50.960;4.136;2023-06-14T03:09:00;9.85;;;7.13;;
51270;SDS011;37744;50.960;4.136;2023-06-14T03:11:29;9.43;;;7.78;;
51270;SDS011;37744;50.960;4.136;2023-06-14T03:13:54;15.60;;;7.53;;
51270;SDS011;37744;50.960;4.136;2023-06-14T03:16:21;12.75;;;7.45;;
51270;SDS011;37744;50.960;4.136;2023-06-14T03:18:49;14.48;;;7.93;;
51270;SDS011;37744;50.960;4.136;2023-06-14T03:21:15;11.95;;;7.68;;
51270;SDS011;37744;50.960;4.136;2023-06-14T03:23:41;11.00;;;7.38;;
51270;SDS011;37744;50.960;4.136;2023-06-14T03:26:06;10.88;;;7.45;;
51270;SDS011;37744;50.960;4.136;2023-06-14T03:28:31;11.52;;;7.72;;
51270;SDS011;37744;50.960;4.136;2023-06-14T03:30:57;9.65;;;6.90;;
51270;SDS011;37744;50.960;4.136;2023-06-14T03:33:22;10.88;;;8.13;;
51270;SDS011;37744;50.960;4.136;2023-06-14T03:35:47;12.98;;;7.85;;
51270;SDS011;37744;50.960;4.136;2023-06-14T03:38:13;11.57;;;7.28;;
51270;SDS011;37744;50.960;4.136;2023-06-14T03:40:38;11.60;;;7.28;;
51270;SDS011;37744;50.960;4.136;2023-06-14T03:43:03;8.30;;;6.82;;
51270;SDS011;37744;50.960;4.136;2023-06-14T03:45:29;16.00;;;7.90;;
51270;SDS011;37744;50.960;4.136;2023-06-14T03:47:55;12.68;;;7.82;;
51270;SDS011;37744;50.960;4.136;2023-06-14T03:50:21;11.57;;;7.43;;
51270;SDS011;37744;50.960;4.136;2023-06-14T03:52:48;10.27;;;7.57;;
51270;SDS011;37744;50.960;4.136;2023-06-14T03:55:13;12.70;;;8.38;;
51270;SDS011;37744;50.960;4.136;2023-06-14T03:57:41;11.95;;;7.35;;
51270;SDS011;37744;50.960;4.136;2023-06-14T04:00:08;9.93;;;7.93;;
51270;SDS011;37744;50.960;4.136;2023-06-14T04:02:34;9.30;;;7.38;;
51270;SDS011;37744;50.960;4.136;2023-06-14T04:05:00;11.95;;;7.82;;
51270;SDS011;37744;50.960;4.136;2023-06-14T04:07:25;10.82;;;7.70;;
51270;SDS011;37744;50.960;4.136;2023-06-14T04:09:53;12.05;;;7.75;;
51270;SDS011;37744;50.960;4.136;2023-06-14T04:12:18;13.98;;;7.60;;
51270;SDS011;37744;50.960;4.136;2023-06-14T04:14:43;12.85;;;6.95;;
51270;SDS011;37744;50.960;4.136;2023-06-14T04:17:09;11.55;;;7.90;;
51270;SDS011;37744;50.960;4.136;2023-06-14T04:19:34;9.95;;;7.07;;
51270;SDS011;37744;50.960;4.136;2023-06-14T04:21:59;12.45;;;8.15;;
51270;SDS011;37744;50.960;4.136;2023-06-14T04:24:28;11.05;;;7.43;;
51270;SDS011;37744;50.960;4.136;2023-06-14T04:27:00;9.73;;;6.38;;
51270;SDS011;37744;50.960;4.136;2023-06-14T04:29:26;12.63;;;7.28;;
51270;SDS011;37744;50.960;4.136;2023-06-14T04:31:53;10.20;;;7.32;;
51270;SDS011;37744;50.960;4.136;2023-06-14T04:34:18;10.20;;;6.95;;
51270;SDS011;37744;50.960;4.136;2023-06-14T04:36:43;10.40;;;7.25;;
51270;SDS011;37744;50.960;4.136;2023-06-14T04:39:14;20.65;;;8.25;;
51270;SDS011;37744;50.960;4.136;2023-06-14T04:41:40;10.18;;;7.38;;
51270;SDS011;37744;50.960;4.136;2023-06-14T04:44:05;10.75;;;7.00;;
51270;SDS011;37744;50.960;4.136;2023-06-14T04:46:32;15.00;;;8.32;;
51270;SDS011;37744;50.960;4.136;2023-06-14T04:48:57;13.77;;;7.78;;
51270;SDS011;37744;50.960;4.136;2023-06-14T04:51:29;15.88;;;8.20;;
51270;SDS011;37744;50.960;4.136;2023-06-14T04:53:56;19.75;;;8.52;;
51270;SDS011;37744;50.960;4.136;2023-06-14T04:56:23;13.88;;;8.35;;
51270;SDS011;37744;50.960;4.136;2023-06-14T04:58:50;14.25;;;7.57;;
51270;SDS011;37744;50.960;4.136;2023-06-14T05:01:15;12.68;;;7.65;;
51270;SDS011;37744;50.960;4.136;2023-06-14T05:03:42;10.50;;;7.65;;
51270;SDS011;37744;50.960;4.136;2023-06-14T05:06:10;13.55;;;7.85;;
51270;SDS011;37744;50.960;4.136;2023-06-14T05:08:37;14.93;;;8.27;;
51270;SDS011;37744;50.960;4.136;2023-06-14T05:11:02;16.52;;;7.88;;
51270;SDS011;37744;50.960;4.136;2023-06-14T05:13:28;12.90;;;6.95;;
51270;SDS011;37744;50.960;4.136;2023-06-14T05:15:53;14.68;;;7.47;;
51270;SDS011;37744;50.960;4.136;2023-06-14T05:18:19;11.75;;;7.75;;
51270;SDS011;37744;50.960;4.136;2023-06-14T05:20:44;12.63;;;7.80;;
51270;SDS011;37744;50.960;4.136;2023-06-14T05:23:11;14.40;;;7.35;;
51270;SDS011;37744;50.960;4.136;2023-06-14T05:25:41;9.75;;;7.28;;
51270;SDS011;37744;50.960;4.136;2023-06-14T05:28:06;10.68;;;7.18;;
51270;SDS011;37744;50.960;4.136;2023-06-14T05:30:31;11.27;;;7.45;;
51270;SDS011;37744;50.960;4.136;2023-06-14T05:32:58;11.52;;;7.20;;
51270;SDS011;37744;50.960;4.136;2023-06-14T05:35:23;10.27;;;7.35;;
51270;SDS011;37744;50.960;4.136;2023-06-14T05:37:51;11.75;;;7.40;;
51270;SDS011;37744;50.960;4.136;2023-06-14T05:40:16;11.20;;;7.57;;
51270;SDS011;37744;50.960;4.136;2023-06-14T05:42:42;22.60;;;9.10;;
51270;SDS011;37744;50.960;4.136;2023-06-14T05:45:08;17.13;;;7.80;;
51270;SDS011;37744;50.960;4.136;2023-06-14T05:47:33;12.65;;;8.07;;
51270;SDS011;37744;50.960;4.136;2023-06-14T05:49:58;14.27;;;7.55;;
51270;SDS011;37744;50.960;4.136;2023-06-14T05:52:23;14.98;;;7.65;;
51270;SDS011;37744;50.960;4.136;2023-06-14T05:54:49;12.35;;;7.32;;
51270;SDS011;37744;50.960;4.136;2023-06-14T05:57:14;11.07;;;7.93;;
51270;SDS011;37744;50.960;4.136;2023-06-14T05:59:40;17.65;;;8.18;;
51270;SDS011;37744;50.960;4.136;2023-06-14T06:02:05;11.48;;;8.30;;
51270;SDS011;37744;50.960;4.136;2023-06-14T06:04:30;10.60;;;7.75;;
51270;SDS011;37744;50.960;4.136;2023-06-14T06:06:56;13.70;;;8.18;;
51270;SDS011;37744;50.960;4.136;2023-06-14T06:09:21;13.77;;;8.00;;
51270;SDS011;37744;50.960;4.136;2023-06-14T06:11:46;12.52;;;7.68;;
51270;SDS011;37744;50.960;4.136;2023-06-14T06:14:11;11.40;;;8.13;;
51270;SDS011;37744;50.960;4.136;2023-06-14T06:16:37;13.52;;;8.25;;
51270;SDS011;37744;50.960;4.136;2023-06-14T06:19:02;15.38;;;8.27;;
51270;SDS011;37744;50.960;4.136;2023-06-14T06:21:27;12.45;;;8.10;;
51270;SDS011;37744;50.960;4.136;2023-06-14T06:23:52;12.85;;;7.65;;
51270;SDS011;37744;50.960;4.136;2023-06-14T06:26:21;12.85;;;8.45;;
51270;SDS011;37744;50.960;4.136;2023-06-14T06:28:47;13.23;;;8.50;;
51270;SDS011;37744;50.960;4.136;2023-06-14T06:31:12;12.82;;;7.97;;
51270;SDS011;37744;50.960;4.136;2023-06-14T06:33:38;11.20;;;7.60;;
51270;SDS011;37744;50.960;4.136;2023-06-14T06:36:05;12.07;;;7.75;;
51270;SDS011;37744;50.960;4.136;2023-06-14T06:38:30;12.85;;;8.15;;
51270;SDS011;37744;50.960;4.136;2023-06-14T06:40:55;12.05;;;8.13;;
51270;SDS011;37744;50.960;4.136;2023-06-14T06:43:21;12.43;;;8.05;;
51270;SDS011;37744;50.960;4.136;2023-06-14T06:45:47;9.70;;;7.75;;
51270;SDS011;37744;50.960;4.136;2023-06-14T06:48:12;12.40;;;8.02;;
51270;SDS011;37744;50.960;4.136;2023-06-14T06:50:39;13.30;;;7.88;;
51270;SDS011;37744;50.960;4.136;2023-06-14T06:53:06;12.98;;;7.60;;
51270;SDS011;37744;50.960;4.136;2023-06-14T06:55:32;10.95;;;7.80;;
51270;SDS011;37744;50.960;4.136;2023-06-14T06:57:58;15.90;;;8.02;;
51270;SDS011;37744;50.960;4.136;2023-06-14T07:00:24;14.00;;;8.07;;
51270;SDS011;37744;50.960;4.136;2023-06-14T07:02:51;11.00;;;7.65;;
51270;SDS011;37744;50.960;4.136;2023-06-14T07:05:17;12.10;;;7.65;;
51270;SDS011;37744;50.960;4.136;2023-06-14T07:07:42;10.45;;;6.93;;
51270;SDS011;37744;50.960;4.136;2023-06-14T07:10:08;11.57;;;7.03;;
51270;SDS011;37744;50.960;4.136;2023-06-14T07:12:34;8.60;;;6.60;;
51270;SDS011;37744;50.960;4.136;2023-06-14T07:15:04;15.38;;;7.57;;
51270;SDS011;37744;50.960;4.136;2023-06-14T07:17:29;9.52;;;6.93;;
51270;SDS011;37744;50.960;4.136;2023-06-14T07:19:55;10.85;;;7.05;;
51270;SDS011;37744;50.960;4.136;2023-06-14T07:22:20;11.82;;;7.05;;
51270;SDS011;37744;50.960;4.136;2023-06-14T07:24:46;15.07;;;7.40;;
51270;SDS011;37744;50.960;4.136;2023-06-14T07:27:11;10.70;;;6.47;;
51270;SDS011;37744;50.960;4.136;2023-06-14T07:29:38;10.27;;;6.57;;
51270;SDS011;37744;50.960;4.136;2023-06-14T07:32:03;7.97;;;6.07;;
51270;SDS011;37744;50.960;4.136;2023-06-14T07:34:32;12.77;;;6.20;;
51270;SDS011;37744;50.960;4.136;2023-06-14T07:36:57;10.13;;;6.13;;
51270;SDS011;37744;50.960;4.136;2023-06-14T07:39:23;9.05;;;6.60;;
51270;SDS011;37744;50.960;4.136;2023-06-14T07:41:49;9.55;;;6.53;;
51270;SDS011;37744;50.960;4.136;2023-06-14T07:44:14;12.68;;;6.20;;
51270;SDS011;37744;50.960;4.136;2023-06-14T07:46:40;10.63;;;6.13;;
51270;SDS011;37744;50.960;4.136;2023-06-14T07:49:07;9.57;;;6.53;;
51270;SDS011;37744;50.960;4.136;2023-06-14T07:51:32;14.00;;;6.68;;
51270;SDS011;37744;50.960;4.136;2023-06-14T07:53:59;12.10;;;6.70;;
51270;SDS011;37744;50.960;4.136;2023-06-14T07:56:25;10.82;;;6.50;;
51270;SDS011;37744;50.960;4.136;2023-06-14T07:58:51;14.70;;;6.82;;
51270;SDS011;37744;50.960;4.136;2023-06-14T08:01:16;9.10;;;6.22;;
51270;SDS011;37744;50.960;4.136;2023-06-14T08:03:42;13.18;;;5.68;;
51270;SDS011;37744;50.960;4.136;2023-06-14T08:06:07;13.82;;;6.47;;
51270;SDS011;37744;50.960;4.136;2023-06-14T08:08:32;10.20;;;6.55;;
51270;SDS011;37744;50.960;4.136;2023-06-14T08:10:58;9.57;;;5.60;;
51270;SDS011;37744;50.960;4.136;2023-06-14T08:13:24;11.23;;;6.97;;
51270;SDS011;37744;50.960;4.136;2023-06-14T08:15:49;11.40;;;6.40;;
51270;SDS011;37744;50.960;4.136;2023-06-14T08:18:15;12.50;;;6.00;;
51270;SDS011;37744;50.960;4.136;2023-06-14T08:20:40;10.40;;;5.85;;
51270;SDS011;37744;50.960;4.136;2023-06-14T08:23:07;8.50;;;6.55;;
51270;SDS011;37744;50.960;4.136;2023-06-14T08:25:34;11.23;;;6.28;;
51270;SDS011;37744;50.960;4.136;2023-06-14T08:27:59;9.65;;;5.95;;
51270;SDS011;37744;50.960;4.136;2023-06-14T08:30:25;12.45;;;5.80;;
51270;SDS011;37744;50.960;4.136;2023-06-14T08:32:50;8.98;;;6.25;;
51270;SDS011;37744;50.960;4.136;2023-06-14T08:35:16;9.23;;;5.50;;
51270;SDS011;37744;50.960;4.136;2023-06-14T08:37:43;10.82;;;5.15;;
51270;SDS011;37744;50.960;4.136;2023-06-14T08:40:30;8.23;;;5.72;;
51270;SDS011;37744;50.960;4.136;2023-06-14T08:42:54;11.05;;;5.43;;
51270;SDS011;37744;50.960;4.136;2023-06-14T08:45:23;13.10;;;5.43;;
51270;SDS011;37744;50.960;4.136;2023-06-14T08:47:50;9.52;;;5.50;;
51270;SDS011;37744;50.960;4.136;2023-06-14T08:50:24;8.90;;;5.43;;
51270;SDS011;37744;50.960;4.136;2023-06-14T08:52:55;9.40;;;5.20;;
51270;SDS011;37744;50.960;4.136;2023-06-14T08:55:22;10.10;;;5.30;;
51270;SDS011;37744;50.960;4.136;2023-06-14T08:57:50;8.48;;;5.18;;
51270;SDS011;37744;50.960;4.136;2023-06-14T09:00:16;10.18;;;6.03;;
51270;SDS011;37744;50.960;4.136;2023-06-14T09:02:42;9.65;;;5.47;;
51270;SDS011;37744;50.960;4.136;2023-06-14T09:05:09;8.65;;;4.88;;
51270;SDS011;37744;50.960;4.136;2023-06-14T09:07:34;8.43;;;5.15;;
51270;SDS011;37744;50.960;4.136;2023-06-14T09:10:09;8.85;;;5.10;;
51270;SDS011;37744;50.960;4.136;2023-06-14T09:12:35;17.75;;;5.88;;
51270;SDS011;37744;50.960;4.136;2023-06-14T09:15:00;8.57;;;5.03;;
51270;SDS011;37744;50.960;4.136;2023-06-14T09:17:31;17.45;;;6.07;;
51270;SDS011;37744;50.960;4.136;2023-06-14T09:19:58;14.50;;;5.85;;
51270;SDS011;37744;50.960;4.136;2023-06-14T09:22:23;7.88;;;5.47;;
51270;SDS011;37744;50.960;4.136;2023-06-14T09:24:48;13.95;;;5.63;;
51270;SDS011;37744;50.960;4.136;2023-06-14T09:27:16;11.85;;;5.45;;
51270;SDS011;37744;50.960;4.136;2023-06-14T09:29:42;9.00;;;5.40;;
51270;SDS011;37744;50.960;4.136;2023-06-14T09:32:07;18.50;;;5.88;;
51270;SDS011;37744;50.960;4.136;2023-06-14T09:34:33;11.02;;;5.28;;
51270;SDS011;37744;50.960;4.136;2023-06-14T09:36:58;11.15;;;5.75;;
51270;SDS011;37744;50.960;4.136;2023-06-14T09:39:23;12.00;;;5.53;;
51270;SDS011;37744;50.960;4.136;2023-06-14T09:41:50;8.63;;;4.78;;
51270;SDS011;37744;50.960;4.136;2023-06-14T09:44:15;8.38;;;5.50;;
51270;SDS011;37744;50.960;4.136;2023-06-14T09:46:43;10.65;;;5.47;;
51270;SDS011;37744;50.960;4.136;2023-06-14T09:49:09;10.55;;;5.38;;
51270;SDS011;37744;50.960;4.136;2023-06-14T09:51:34;9.73;;;5.60;;
51270;SDS011;37744;50.960;4.136;2023-06-14T09:54:01;11.70;;;5.63;;
51270;SDS011;37744;50.960;4.136;2023-06-14T09:56:27;15.13;;;5.60;;
51270;SDS011;37744;50.960;4.136;2023-06-14T09:58:54;8.77;;;5.20;;
51270;SDS011;37744;50.960;4.136;2023-06-14T10:01:20;8.15;;;5.60;;
51270;SDS011;37744;50.960;4.136;2023-06-14T10:03:46;12.65;;;5.30;;
51270;SDS011;37744;50.960;4.136;2023-06-14T10:06:13;10.30;;;5.00;;
51270;SDS011;37744;50.960;4.136;2023-06-14T10:08:38;10.95;;;5.20;;
51270;SDS011;37744;50.960;4.136;2023-06-14T10:11:04;8.05;;;5.20;;
51270;SDS011;37744;50.960;4.136;2023-06-14T10:13:31;10.13;;;5.80;;
51270;SDS011;37744;50.960;4.136;2023-06-14T10:16:00;8.05;;;5.35;;
51270;SDS011;37744;50.960;4.136;2023-06-14T10:21:13;8.40;;;5.57;;
51270;SDS011;37744;50.960;4.136;2023-06-14T10:23:40;8.50;;;4.97;;
51270;SDS011;37744;50.960;4.136;2023-06-14T10:26:06;8.85;;;5.25;;
51270;SDS011;37744;50.960;4.136;2023-06-14T10:28:32;9.02;;;5.40;;
51270;SDS011;37744;50.960;4.136;2023-06-14T10:31:04;12.18;;;5.80;;
51270;SDS011;37744;50.960;4.136;2023-06-14T10:33:30;6.13;;;4.70;;
51270;SDS011;37744;50.960;4.136;2023-06-14T10:36:24;10.55;;;5.40;;
51270;SDS011;37744;50.960;4.136;2023-06-14T10:38:58;9.45;;;5.00;;
51270;SDS011;37744;50.960;4.136;2023-06-14T10:41:25;5.93;;;4.75;;
51270;SDS011;37744;50.960;4.136;2023-06-14T10:43:52;8.27;;;5.03;;
51270;SDS011;37744;50.960;4.136;2023-06-14T10:46:18;8.25;;;5.00;;
51270;SDS011;37744;50.960;4.136;2023-06-14T10:48:46;6.00;;;4.32;;
51270;SDS011;37744;50.960;4.136;2023-06-14T10:51:18;5.65;;;4.07;;
51270;SDS011;37744;50.960;4.136;2023-06-14T10:53:45;6.18;;;4.20;;
51270;SDS011;37744;50.960;4.136;2023-06-14T10:56:22;6.78;;;4.60;;
51270;SDS011;37744;50.960;4.136;2023-06-14T10:58:49;6.80;;;4.80;;
51270;SDS011;37744;50.960;4.136;2023-06-14T11:01:15;8.10;;;4.57;;
51270;SDS011;37744;50.960;4.136;2023-06-14T11:06:12;16.37;;;5.37;;
51270;SDS011;37744;50.960;4.136;2023-06-14T11:11:06;6.57;;;4.32;;
51270;SDS011;37744;50.960;4.136;2023-06-14T11:13:32;7.05;;;4.82;;
51270;SDS011;37744;50.960;4.136;2023-06-14T11:15:57;7.70;;;4.75;;
51270;SDS011;37744;50.960;4.136;2023-06-14T11:18:23;5.80;;;4.60;;
51270;SDS011;37744;50.960;4.136;2023-06-14T11:20:53;6.53;;;4.32;;
51270;SDS011;37744;50.960;4.136;2023-06-14T11:23:18;8.10;;;4.20;;
51270;SDS011;37744;50.960;4.136;2023-06-14T11:25:49;7.20;;;4.30;;
51270;SDS011;37744;50.960;4.136;2023-06-14T11:28:14;9.35;;;4.57;;
51270;SDS011;37744;50.960;4.136;2023-06-14T11:30:39;8.30;;;4.30;;
51270;SDS011;37744;50.960;4.136;2023-06-14T11:33:04;13.48;;;5.07;;
51270;SDS011;37744;50.960;4.136;2023-06-14T11:35:34;7.20;;;4.30;;
51270;SDS011;37744;50.960;4.136;2023-06-14T11:38:01;7.32;;;4.45;;
51270;SDS011;37744;50.960;4.136;2023-06-14T11:40:26;5.45;;;4.20;;
51270;SDS011;37744;50.960;4.136;2023-06-14T11:42:59;8.75;;;4.40;;
51270;SDS011;37744;50.960;4.136;2023-06-14T11:45:25;7.47;;;4.47;;
51270;SDS011;37744;50.960;4.136;2023-06-14T11:47:50;6.78;;;4.25;;
51270;SDS011;37744;50.960;4.136;2023-06-14T11:50:16;8.93;;;4.30;;
51270;SDS011;37744;50.960;4.136;2023-06-14T11:52:41;11.50;;;4.15;;
51270;SDS011;37744;50.960;4.136;2023-06-14T11:55:07;9.50;;;4.10;;
51270;SDS011;37744;50.960;4.136;2023-06-14T11:57:35;6.22;;;3.97;;
51270;SDS011;37744;50.960;4.136;2023-06-14T12:00:06;11.02;;;4.50;;
51270;SDS011;37744;50.960;4.136;2023-06-14T12:02:37;7.07;;;4.22;;
51270;SDS011;37744;50.960;4.136;2023-06-14T12:05:05;7.10;;;4.47;;
51270;SDS011;37744;50.960;4.136;2023-06-14T12:07:36;7.50;;;4.47;;
51270;SDS011;37744;50.960;4.136;2023-06-14T12:12:28;8.88;;;4.75;;
51270;SDS011;37744;50.960;4.136;2023-06-14T12:14:55;12.45;;;4.38;;
51270;SDS011;37744;50.960;4.136;2023-06-14T12:17:21;8.65;;;4.55;;
51270;SDS011;37744;50.960;4.136;2023-06-14T12:19:46;6.90;;;4.32;;
51270;SDS011;37744;50.960;4.136;2023-06-14T12:22:12;6.28;;;4.03;;
51270;SDS011;37744;50.960;4.136;2023-06-14T12:24:37;7.95;;;4.60;;
51270;SDS011;37744;50.960;4.136;2023-06-14T12:27:06;6.53;;;4.43;;
51270;SDS011;37744;50.960;4.136;2023-06-14T12:29:31;9.73;;;4.00;;
51270;SDS011;37744;50.960;4.136;2023-06-14T12:31:57;8.27;;;4.50;;
51270;SDS011;37744;50.960;4.136;2023-06-14T12:34:25;6.72;;;4.22;;
51270;SDS011;37744;50.960;4.136;2023-06-14T12:36:52;4.72;;;3.97;;
51270;SDS011;37744;50.960;4.136;2023-06-14T12:39:18;7.82;;;4.15;;
51270;SDS011;37744;50.960;4.136;2023-06-14T12:41:43;5.90;;;3.65;;
51270;SDS011;37744;50.960;4.136;2023-06-14T12:44:09;10.95;;;4.28;;
51270;SDS011;37744;50.960;4.136;2023-06-14T12:46:35;7.03;;;4.25;;
51270;SDS011;37744;50.960;4.136;2023-06-14T12:49:01;6.78;;;4.10;;
51270;SDS011;37744;50.960;4.136;2023-06-14T12:51:27;11.95;;;4.05;;
51270;SDS011;37744;50.960;4.136;2023-06-14T12:53:52;9.52;;;4.05;;
51270;SDS011;37744;50.960;4.136;2023-06-14T12:56:17;6.43;;;4.20;;
51270;SDS011;37744;50.960;4.136;2023-06-14T12:58:43;6.53;;;3.92;;
51270;SDS011;37744;50.960;4.136;2023-06-14T13:01:08;7.28;;;3.95;;
51270;SDS011;37744;50.960;4.136;2023-06-14T13:03:33;7.63;;;3.90;;
51270;SDS011;37744;50.960;4.136;2023-06-14T13:05:59;5.35;;;4.10;;
51270;SDS011;37744;50.960;4.136;2023-06-14T13:08:24;6.05;;;3.63;;
51270;SDS011;37744;50.960;4.136;2023-06-14T13:10:50;6.72;;;3.90;;
51270;SDS011;37744;50.960;4.136;2023-06-14T13:13:15;10.88;;;4.40;;
51270;SDS011;37744;50.960;4.136;2023-06-14T13:15:40;5.13;;;3.67;;
51270;SDS011;37744;50.960;4.136;2023-06-14T13:18:06;6.00;;;3.60;;
51270;SDS011;37744;50.960;4.136;2023-06-14T13:20:31;8.35;;;3.63;;
51270;SDS011;37744;50.960;4.136;2023-06-14T13:22:56;8.23;;;3.42;;
51270;SDS011;37744;50.960;4.136;2023-06-14T13:25:22;8.10;;;3.70;;
51270;SDS011;37744;50.960;4.136;2023-06-14T13:27:47;7.03;;;3.45;;
51270;SDS011;37744;50.960;4.136;2023-06-14T13:30:13;9.40;;;3.92;;
51270;SDS011;37744;50.960;4.136;2023-06-14T13:32:38;4.05;;;3.40;;
51270;SDS011;37744;50.960;4.136;2023-06-14T13:35:04;6.25;;;3.83;;
51270;SDS011;37744;50.960;4.136;2023-06-14T13:37:30;6.55;;;3.63;;
51270;SDS011;37744;50.960;4.136;2023-06-14T13:39:55;7.10;;;3.70;;
51270;SDS011;37744;50.960;4.136;2023-06-14T13:42:20;8.18;;;3.70;;
51270;SDS011;37744;50.960;4.136;2023-06-14T13:44:46;5.38;;;3.47;;
51270;SDS011;37744;50.960;4.136;2023-06-14T13:47:11;5.72;;;3.33;;
51270;SDS011;37744;50.960;4.136;2023-06-14T13:49:37;6.70;;;3.72;;
51270;SDS011;37744;50.960;4.136;2023-06-14T13:52:02;6.47;;;3.25;;
51270;SDS011;37744;50.960;4.136;2023-06-14T13:54:28;8.48;;;3.42;;
51270;SDS011;37744;50.960;4.136;2023-06-14T13:56:53;4.43;;;3.50;;
51270;SDS011;37744;50.960;4.136;2023-06-14T13:59:19;8.00;;;3.03;;
51270;SDS011;37744;50.960;4.136;2023-06-14T14:01:44;5.95;;;3.20;;
51270;SDS011;37744;50.960;4.136;2023-06-14T14:04:10;6.15;;;3.63;;
51270;SDS011;37744;50.960;4.136;2023-06-14T14:06:36;7.35;;;3.10;;
51270;SDS011;37744;50.960;4.136;2023-06-14T14:09:01;8.70;;;3.70;;
51270;SDS011;37744;50.960;4.136;2023-06-14T14:11:26;5.97;;;3.05;;
51270;SDS011;37744;50.960;4.136;2023-06-14T14:13:52;7.50;;;3.22;;
51270;SDS011;37744;50.960;4.136;2023-06-14T14:16:18;5.25;;;2.90;;
51270;SDS011;37744;50.960;4.136;2023-06-14T14:18:45;4.75;;;3.05;;
51270;SDS011;37744;50.960;4.136;2023-06-14T14:21:11;5.97;;;3.25;;
51270;SDS011;37744;50.960;4.136;2023-06-14T14:23:36;5.10;;;3.37;;
51270;SDS011;37744;50.960;4.136;2023-06-14T14:26:01;8.73;;;2.88;;
51270;SDS011;37744;50.960;4.136;2023-06-14T14:28:29;3.33;;;2.20;;
51270;SDS011;37744;50.960;4.136;2023-06-14T14:30:54;5.78;;;2.88;;
51270;SDS011;37744;50.960;4.136;2023-06-14T14:33:20;3.63;;;2.53;;
51270;SDS011;37744;50.960;4.136;2023-06-14T14:35:45;4.40;;;2.25;;
51270;SDS011;37744;50.960;4.136;2023-06-14T14:38:13;4.90;;;2.25;;
51270;SDS011;37744;50.960;4.136;2023-06-14T14:40:40;4.05;;;1.90;;
51270;SDS011;37744;50.960;4.136;2023-06-14T14:43:05;5.07;;;1.90;;
51270;SDS011;37744;50.960;4.136;2023-06-14T14:45:31;6.05;;;2.00;;
51270;SDS011;37744;50.960;4.136;2023-06-14T14:47:56;3.85;;;1.92;;